Time;durP1;ratioP1;P1;durP2;ratioP2;P2;SDS_P1;SDS_P2;PMS_P1;PMS_P2;Temp;Humidity;BMP_temperature;BMP_pressure;BME280_temperature;BME280_humidity;BME280_pressure;Samples;Min_cycle;Max_cycle;Signal;HPM_P1;HPM_P2
2021/12/11 00:00:46;;;;;;;11.02;5.85;;;-1.20;99.90;;;;;;7273113;32;20112;-60
2021/12/11 00:04:55;;;;;;;14.52;6.43;;;-1.20;99.90;;;;;;7263820;32;20108;-59
2021/12/11 00:09:02;;;;;;;15.55;5.65;;;-1.20;99.90;;;;;;7255299;32;20135;-60
2021/12/11 00:13:12;;;;;;;12.27;5.75;;;-1.20;99.90;;;;;;7266836;32;20607;-59
2021/12/11 00:17:21;;;;;;;11.98;5.75;;;-1.30;99.90;;;;;;7271128;32;20151;-59
2021/12/11 00:21:24;;;;;;;10.43;5.50;;;-1.30;99.90;;;;;;7270227;32;20127;-60
2021/12/11 00:25:27;;;;;;;9.38;6.20;;;-1.30;99.90;;;;;;7260616;32;20252;-60
2021/12/11 00:29:31;;;;;;;10.55;5.50;;;-1.30;99.90;;;;;;7276104;32;20108;-60
2021/12/11 00:33:33;;;;;;;9.95;5.25;;;-1.30;99.90;;;;;;7271657;32;20117;-59
2021/12/11 00:37:37;;;;;;;7.95;5.32;;;-1.40;99.90;;;;;;7268287;32;20499;-59
2021/12/11 00:41:40;;;;;;;13.80;5.78;;;-1.40;99.90;;;;;;7260928;32;20484;-59
2021/12/11 00:45:42;;;;;;;11.20;5.35;;;-1.50;99.90;;;;;;7272062;32;20109;-58
2021/12/11 00:49:48;;;;;;;14.00;6.05;;;-1.50;99.90;;;;;;7265435;32;20242;-59
2021/12/11 00:53:55;;;;;;;13.02;6.30;;;-1.40;99.90;;;;;;7264483;32;20136;-59
2021/12/11 00:58:05;;;;;;;;;;;-1.40;99.90;;;;;;7266683;32;20529;-58
2021/12/11 01:02:08;;;;;;;10.82;6.00;;;-1.40;99.90;;;;;;7268627;32;20479;-59
2021/12/11 01:06:19;;;;;;;13.70;6.18;;;-1.40;99.90;;;;;;7267998;32;20113;-60
2021/12/11 01:10:27;;;;;;;12.70;5.87;;;-1.40;99.90;;;;;;7255135;32;20108;-60
2021/12/11 01:14:39;;;;;;;9.63;4.90;;;-1.40;99.90;;;;;;7254691;32;20677;-59
2021/12/11 01:18:45;;;;;;;11.07;6.12;;;-1.40;99.90;;;;;;7266390;32;20153;-59
2021/12/11 01:22:48;;;;;;;11.10;6.07;;;-1.50;99.90;;;;;;7260909;32;20132;-59
2021/12/11 01:26:52;;;;;;;13.85;6.03;;;-1.40;99.90;;;;;;7262969;32;20542;-58
2021/12/11 01:30:54;;;;;;;10.90;5.93;;;-1.50;99.90;;;;;;7275480;32;20104;-58
2021/12/11 01:34:58;;;;;;;12.02;5.57;;;-1.50;99.90;;;;;;7269548;32;20503;-58
2021/12/11 01:39:12;;;;;;;12.57;6.60;;;-1.40;99.90;;;;;;7281445;32;20563;-59
2021/12/11 01:43:14;;;;;;;9.30;5.97;;;-1.30;99.90;;;;;;7264306;32;20164;-59
2021/12/11 01:47:20;;;;;;;9.80;5.47;;;-1.30;99.90;;;;;;7262069;32;20453;-59
2021/12/11 01:51:29;;;;;;;11.27;5.80;;;-1.30;99.90;;;;;;7267081;32;20101;-58
2021/12/11 01:55:43;;;;;;;10.18;5.78;;;-1.20;99.90;;;;;;7278729;32;20112;-58
2021/12/11 01:59:52;;;;;;;10.95;6.03;;;-1.20;99.90;;;;;;7268643;32;20579;-58
2021/12/11 02:04:00;;;;;;;11.07;5.62;;;-1.10;99.90;;;;;;7260292;32;20910;-58
2021/12/11 02:08:06;;;;;;;10.85;6.20;;;-1.10;99.90;;;;;;7273622;32;20112;-57
2021/12/11 02:12:22;;;;;;;9.88;5.97;;;-1.10;99.90;;;;;;7277733;32;20159;-58
2021/12/11 02:16:26;;;;;;;9.88;6.25;;;-1.10;99.90;;;;;;7250594;32;20638;-59
2021/12/11 02:20:37;;;;;;;12.40;6.53;;;-1.00;99.90;;;;;;7257155;32;20209;-58
2021/12/11 02:24:48;;;;;;;11.68;7.20;;;-0.90;99.90;;;;;;7266700;32;20112;-57
2021/12/11 02:28:59;;;;;;;10.88;6.87;;;-0.80;99.90;;;;;;7272073;32;20442;-57
2021/12/11 02:33:18;;;;;;;12.00;6.30;;;-0.70;99.90;;;;;;7246476;32;21284;-59
2021/12/11 02:37:46;;;;;;;9.88;6.25;;;-0.60;99.90;;;;;;7275330;32;20147;-58
2021/12/11 02:41:55;;;;;;;14.30;5.85;;;-0.50;99.90;;;;;;7272421;32;20250;-58
2021/12/11 02:46:17;;;;;;;11.32;6.50;;;-0.40;99.90;;;;;;7252657;32;20121;-58
2021/12/11 02:50:42;;;;;;;12.68;6.93;;;-0.40;99.90;;;;;;7262957;32;20112;-58
2021/12/11 02:55:08;;;;;;;13.32;7.25;;;-0.30;99.90;;;;;;7273255;32;20116;-59
2021/12/11 02:59:15;;;;;;;12.57;7.53;;;-0.20;99.90;;;;;;7279263;32;20584;-59
2021/12/11 03:03:25;;;;;;;17.42;8.77;;;-0.20;99.90;;;;;;7252530;32;20191;-58
2021/12/11 03:07:36;;;;;;;18.35;10.18;;;-0.20;99.90;;;;;;7267884;32;20136;-59
2021/12/11 03:11:38;;;;;;;12.63;8.20;;;-0.10;99.90;;;;;;7259724;32;20563;-59
2021/12/11 03:15:40;;;;;;;14.87;8.02;;;0.00;99.90;;;;;;7279290;32;20147;-58
2021/12/11 03:19:44;;;;;;;15.90;7.95;;;0.00;99.90;;;;;;7270837;32;20150;-59
2021/12/11 03:23:47;;;;;;;16.37;9.55;;;0.00;99.90;;;;;;7265317;32;20863;-59
2021/12/11 03:27:49;;;;;;;15.70;8.93;;;0.10;99.90;;;;;;7264795;32;20127;-59
2021/12/11 03:31:52;;;;;;;20.12;10.68;;;0.20;99.90;;;;;;7245220;32;20822;-60
2021/12/11 03:35:55;;;;;;;29.15;14.63;;;0.20;99.90;;;;;;7256019;32;20124;-59
2021/12/11 03:39:57;;;;;;;35.90;16.35;;;0.40;99.90;;;;;;7259313;32;20132;-59
2021/12/11 03:43:59;;;;;;;17.90;10.60;;;0.50;99.90;;;;;;7274659;32;20116;-60
2021/12/11 03:48:07;;;;;;;41.85;16.20;;;0.60;99.90;;;;;;7257119;32;20144;-59
2021/12/11 03:52:11;;;;;;;32.80;16.35;;;0.70;99.90;;;;;;7266376;32;20121;-60
2021/12/11 03:56:16;;;;;;;36.33;17.70;;;0.80;99.90;;;;;;7276918;32;20112;-59
2021/12/11 04:00:20;;;;;;;37.45;17.33;;;1.00;99.90;;;;;;7274413;32;20536;-59
2021/12/11 04:04:39;;;;;;;30.88;16.17;;;1.10;99.90;;;;;;7262447;32;20135;-59
2021/12/11 04:08:43;;;;;;;43.33;18.73;;;1.10;99.90;;;;;;7270499;32;20135;-59
2021/12/11 04:12:50;;;;;;;31.75;16.95;;;1.30;99.90;;;;;;7261695;32;20109;-60
2021/12/11 04:16:52;;;;;;;44.72;17.70;;;1.20;99.90;;;;;;7262615;32;20540;-59
2021/12/11 04:20:54;;;;;;;35.88;17.42;;;1.20;99.90;;;;;;7260647;32;20139;-59
2021/12/11 04:24:56;;;;;;;36.42;18.70;;;1.30;99.90;;;;;;7273597;32;20303;-59
2021/12/11 04:28:58;;;;;;;30.45;17.08;;;1.20;99.90;;;;;;7274084;32;20139;-58
2021/12/11 04:33:01;;;;;;;36.42;19.17;;;1.30;99.90;;;;;;7271401;32;20116;-59
2021/12/11 04:37:13;;;;;;;38.85;17.67;;;1.30;99.90;;;;;;7267069;32;20103;-58
2021/12/11 04:41:23;;;;;;;29.17;16.62;;;1.30;99.90;;;;;;7269583;32;20217;-59
2021/12/11 04:45:34;;;;;;;34.38;17.12;;;1.30;99.90;;;;;;7255816;32;20192;-59
2021/12/11 04:49:47;;;;;;;30.48;17.62;;;1.30;99.90;;;;;;7256400;32;20172;-57
2021/12/11 04:54:45;;;;;;;30.23;16.37;;;1.30;99.90;;;;;;7266451;32;20108;-57
2021/12/11 04:58:40;;;;;;;39.45;18.20;;;1.30;99.90;;;;;;7247555;32;20488;-58
2021/12/11 05:07:23;;;;;;;39.08;19.00;;;1.40;99.90;;;;;;7267242;32;20120;-57
2021/12/11 05:11:50;;;;;;;39.05;19.08;;;1.40;99.90;;;;;;7265301;32;20658;-58
2021/12/11 05:15:54;;;;;;;39.20;19.87;;;1.40;99.90;;;;;;7256223;32;20227;-59
2021/12/11 05:19:56;;;;;;;37.92;19.30;;;1.40;99.90;;;;;;7258760;32;20112;-58
2021/12/11 05:23:58;;;;;;;43.78;20.98;;;1.40;99.90;;;;;;7266473;32;20159;-58
2021/12/11 05:28:00;;;;;;;39.20;20.15;;;1.40;99.90;;;;;;7271083;32;20135;-58
2021/12/11 05:32:05;;;;;;;40.70;19.42;;;1.30;99.90;;;;;;7244669;32;20116;-58
2021/12/11 05:36:09;;;;;;;35.78;20.80;;;1.40;99.90;;;;;;7257752;32;20139;-58
2021/12/11 05:40:15;;;;;;;39.40;20.90;;;1.40;99.90;;;;;;7267054;32;20117;-58
2021/12/11 05:44:19;;;;;;;39.03;20.48;;;1.40;99.90;;;;;;7266433;32;20141;-58
2021/12/11 05:48:21;;;;;;;41.85;21.15;;;1.50;99.90;;;;;;7264515;32;20121;-58
2021/12/11 05:52:24;;;;;;;40.90;21.05;;;1.50;99.90;;;;;;7260498;32;20112;-58
2021/12/11 05:56:34;;;;;;;42.88;20.67;;;1.50;99.90;;;;;;7271149;32;20112;-59
2021/12/11 06:00:55;;;;;;;43.58;21.60;;;1.60;99.90;;;;;;7265403;32;20242;-58
2021/12/11 06:04:59;;;;;;;50.90;23.92;;;1.60;99.90;;;;;;7280201;32;20151;-59
2021/12/11 06:09:03;;;;;;;46.63;23.15;;;1.60;99.90;;;;;;7263797;32;20162;-58
2021/12/11 06:13:04;;;;;;;44.03;22.42;;;1.70;99.90;;;;;;7270571;32;20500;-58
2021/12/11 06:17:09;;;;;;;44.80;23.02;;;1.60;99.90;;;;;;7273161;32;20124;-59
2021/12/11 06:21:12;;;;;;;44.42;22.95;;;1.60;99.90;;;;;;7265465;32;20243;-58
2021/12/11 06:25:18;;;;;;;50.25;24.25;;;1.70;99.90;;;;;;7253271;32;20187;-58
2021/12/11 06:29:20;;;;;;;45.38;24.00;;;1.60;99.90;;;;;;7259286;32;20131;-58
2021/12/11 06:33:22;;;;;;;50.12;24.08;;;1.60;99.90;;;;;;7268906;32;20112;-59
2021/12/11 06:37:24;;;;;;;47.03;23.33;;;1.60;99.90;;;;;;7291813;32;20203;-59
2021/12/11 06:41:30;;;;;;;49.95;24.58;;;1.70;99.90;;;;;;7264455;32;20246;-58
2021/12/11 06:45:32;;;;;;;53.63;24.65;;;1.80;99.90;;;;;;7258352;32;20144;-58
2021/12/11 06:49:36;;;;;;;44.75;23.50;;;1.90;99.90;;;;;;7274076;32;20120;-58
2021/12/11 06:53:42;;;;;;;53.17;24.83;;;1.90;99.90;;;;;;7258393;32;20853;-57
2021/12/11 06:57:46;;;;;;;55.38;24.87;;;1.80;99.90;;;;;;7277331;32;20191;-58
2021/12/11 07:01:48;;;;;;;49.72;25.48;;;1.80;99.90;;;;;;7267664;32;20113;-58
2021/12/11 07:05:49;;;;;;;54.85;26.05;;;1.80;99.90;;;;;;7277503;32;20112;-58
2021/12/11 07:09:53;;;;;;;55.00;25.30;;;1.90;99.90;;;;;;7267717;32;20542;-59
2021/12/11 07:13:55;;;;;;;52.28;25.62;;;1.90;99.90;;;;;;7261847;32;20258;-59
2021/12/11 07:17:57;;;;;;;57.92;27.10;;;1.80;99.90;;;;;;7281038;32;20132;-59
2021/12/11 07:21:59;;;;;;;56.30;25.15;;;1.80;99.90;;;;;;7275125;32;20671;-59
2021/12/11 07:26:13;;;;;;;59.63;27.50;;;1.80;99.90;;;;;;7261546;32;20109;-59
2021/12/11 07:30:15;;;;;;;57.97;26.73;;;1.90;99.90;;;;;;7263551;32;20145;-58
2021/12/11 07:34:17;;;;;;;60.65;27.27;;;1.90;99.90;;;;;;7262075;32;20346;-58
2021/12/11 07:38:20;;;;;;;59.58;28.70;;;1.90;99.90;;;;;;7265396;32;20115;-57
2021/12/11 07:42:21;;;;;;;57.70;27.30;;;1.90;99.90;;;;;;7271929;32;20131;-58
2021/12/11 07:46:27;;;;;;;69.80;28.33;;;1.90;99.90;;;;;;7265892;32;20155;-57
2021/12/11 07:50:29;;;;;;;65.78;27.08;;;2.00;99.90;;;;;;7263074;32;20105;-58
2021/12/11 07:54:31;;;;;;;63.92;28.58;;;2.10;99.90;;;;;;7265609;32;20134;-59
2021/12/11 07:58:34;;;;;;;59.50;26.87;;;2.20;99.90;;;;;;7275307;32;20496;-58
2021/12/11 08:02:36;;;;;;;57.10;26.75;;;2.20;99.90;;;;;;7266419;32;20750;-58
2021/12/11 08:06:39;;;;;;;64.28;27.62;;;2.30;99.90;;;;;;7266021;32;20109;-58
2021/12/11 08:10:43;;;;;;;63.08;29.45;;;2.30;99.90;;;;;;7268609;32;20434;-58
2021/12/11 08:14:45;;;;;;;60.58;27.48;;;2.30;99.90;;;;;;7263917;32;20107;-58
2021/12/11 08:18:47;;;;;;;68.82;30.80;;;2.30;99.90;;;;;;7268187;32;20568;-57
2021/12/11 08:22:51;;;;;;;63.95;29.10;;;2.40;99.90;;;;;;7269911;32;20132;-58
2021/12/11 08:26:55;;;;;;;61.88;29.90;;;2.50;99.90;;;;;;7273138;32;20113;-59
2021/12/11 08:30:58;;;;;;;66.35;29.48;;;2.60;99.90;;;;;;7269336;32;20111;-57
2021/12/11 08:34:59;;;;;;;64.70;27.25;;;2.60;99.90;;;;;;7267412;32;20195;-59
2021/12/11 08:39:05;;;;;;;66.85;29.10;;;2.70;99.90;;;;;;7272379;32;20144;-58
2021/12/11 08:43:09;;;;;;;68.20;27.80;;;2.70;99.90;;;;;;7281242;32;20620;-59
2021/12/11 08:47:11;;;;;;;61.47;27.70;;;2.70;99.90;;;;;;7262031;32;20788;-58
2021/12/11 08:51:22;;;;;;;63.78;27.08;;;2.80;99.90;;;;;;7265640;32;20129;-58
2021/12/11 08:55:28;;;;;;;64.50;27.35;;;2.80;99.90;;;;;;7262085;32;20123;-57
2021/12/11 08:59:31;;;;;;;67.00;26.53;;;2.80;99.90;;;;;;7271466;32;20241;-58
2021/12/11 09:03:46;;;;;;;61.05;27.30;;;2.90;99.90;;;;;;7269466;32;20689;-58
2021/12/11 09:07:59;;;;;;;66.72;29.65;;;2.90;99.90;;;;;;7271952;32;20269;-57
2021/12/11 09:12:17;;;;;;;68.35;28.23;;;2.90;99.90;;;;;;7265470;32;20784;-60
2021/12/11 09:16:33;;;;;;;61.70;28.80;;;3.00;99.90;;;;;;7259305;32;20218;-58
2021/12/11 09:20:57;;;;;;;65.07;28.27;;;3.00;99.90;;;;;;7265105;32;20513;-58
2021/12/11 09:25:31;;;;;;;65.82;27.55;;;3.00;99.90;;;;;;7257810;32;20326;-58
2021/12/11 09:29:41;;;;;;;58.87;27.35;;;3.10;99.90;;;;;;7260147;32;20210;-60
2021/12/11 09:34:06;;;;;;;65.95;28.98;;;3.10;99.90;;;;;;7261417;32;20139;-59
2021/12/11 09:38:20;;;;;;;68.05;29.48;;;3.00;99.90;;;;;;7279845;32;20529;-58
2021/12/11 09:42:21;;;;;;;64.78;28.27;;;3.00;99.90;;;;;;7257767;32;20108;-58
2021/12/11 09:46:35;;;;;;;63.35;28.05;;;3.00;99.90;;;;;;7256720;32;20675;-58
2021/12/11 09:50:48;;;;;;;71.50;29.05;;;3.10;99.90;;;;;;7258868;32;20269;-59
2021/12/11 09:54:56;;;;;;;64.72;27.98;;;3.10;99.90;;;;;;7285301;32;20127;-59
2021/12/11 09:59:00;;;;;;;61.85;27.02;;;3.10;99.90;;;;;;7270659;32;20125;-59
2021/12/11 10:03:05;;;;;;;67.05;28.55;;;3.20;99.90;;;;;;7263908;32;20101;-59
2021/12/11 10:07:36;;;;;;;64.03;28.17;;;3.10;99.90;;;;;;7261192;32;20195;-58
2021/12/11 10:11:37;;;;;;;60.85;25.98;;;3.10;99.90;;;;;;7254117;32;20119;-57
2021/12/11 10:15:41;;;;;;;64.03;26.42;;;3.20;99.90;;;;;;7261586;32;20119;-57
2021/12/11 10:19:44;;;;;;;63.00;27.60;;;3.20;99.90;;;;;;7265162;32;20112;-58
2021/12/11 10:24:10;;;;;;;65.80;27.95;;;3.20;99.90;;;;;;7269169;32;20796;-58
2021/12/11 10:28:18;;;;;;;67.45;27.90;;;3.10;99.90;;;;;;7254593;32;20104;-59
2021/12/11 10:32:23;;;;;;;61.53;27.85;;;3.10;99.90;;;;;;7276011;32;20096;-58
2021/12/11 10:36:28;;;;;;;68.10;29.08;;;3.10;99.90;;;;;;7263401;32;20109;-58
2021/12/11 10:40:35;;;;;;;69.15;29.23;;;3.10;99.90;;;;;;7266788;32;20242;-59
2021/12/11 10:44:41;;;;;;;71.40;29.60;;;3.10;99.90;;;;;;7265263;32;20206;-59
2021/12/11 10:48:44;;;;;;;65.40;28.92;;;3.10;99.90;;;;;;7266706;32;20158;-59
2021/12/11 10:52:48;;;;;;;72.07;29.20;;;3.20;99.90;;;;;;7270804;32;20202;-59
2021/12/11 10:56:50;;;;;;;67.35;28.02;;;3.20;99.90;;;;;;7271459;32;20533;-58
2021/12/11 11:01:21;;;;;;;57.25;26.40;;;3.30;99.90;;;;;;7267960;32;20103;-60
2021/12/11 11:05:26;;;;;;;62.60;27.33;;;3.40;99.90;;;;;;7266791;32;20499;-59
2021/12/11 11:09:30;;;;;;;53.10;24.85;;;3.40;99.90;;;;;;7266514;32;20497;-59
2021/12/11 11:13:33;;;;;;;57.80;25.85;;;3.50;99.90;;;;;;7262240;32;20117;-59
2021/12/11 11:17:35;;;;;;;64.35;27.58;;;3.50;99.90;;;;;;7264615;32;20139;-59
2021/12/11 11:21:41;;;;;;;57.72;27.23;;;3.60;99.90;;;;;;7269882;32;20206;-61
2021/12/11 11:25:47;;;;;;;67.75;28.30;;;3.70;99.90;;;;;;7270442;32;20124;-59
2021/12/11 11:29:49;;;;;;;66.37;27.62;;;3.60;99.90;;;;;;7266065;32;20154;-58
2021/12/11 11:33:51;;;;;;;65.20;28.00;;;3.60;99.90;;;;;;7267463;32;20104;-58
2021/12/11 11:37:56;;;;;;;62.70;27.60;;;3.60;99.90;;;;;;7265667;32;20100;-60
2021/12/11 11:42:01;;;;;;;67.68;29.17;;;3.80;99.90;;;;;;7267253;32;20135;-59
2021/12/11 11:46:04;;;;;;;67.28;30.12;;;3.70;99.90;;;;;;7269782;32;20132;-59
2021/12/11 11:50:11;;;;;;;61.00;27.92;;;3.80;99.90;;;;;;7284361;32;20100;-57
2021/12/11 11:54:14;;;;;;;;;;;4.00;99.90;;;;;;7273974;32;20126;-57
2021/12/11 11:58:16;;;;;;;62.65;26.27;;;4.00;99.90;;;;;;7265534;32;20430;-58
2021/12/11 12:02:23;;;;;;;60.47;26.85;;;4.00;99.90;;;;;;7262443;32;20109;-58
2021/12/11 12:06:31;;;;;;;63.40;27.35;;;4.00;99.90;;;;;;7268034;32;20124;-60
2021/12/11 12:10:34;;;;;;;67.05;27.02;;;4.00;99.90;;;;;;7260029;32;20138;-59
2021/12/11 12:14:38;;;;;;;59.42;25.60;;;4.10;99.90;;;;;;7268236;32;20097;-59
2021/12/11 12:18:42;;;;;;;60.97;24.90;;;4.20;99.90;;;;;;7267869;32;20107;-58
2021/12/11 12:22:50;;;;;;;58.38;26.98;;;4.30;99.90;;;;;;7271547;32;20165;-58
2021/12/11 12:26:51;;;;;;;57.80;26.17;;;4.40;99.90;;;;;;7262628;32;20109;-60
2021/12/11 12:30:57;;;;;;;55.03;25.48;;;4.50;99.90;;;;;;7260494;32;20215;-59
2021/12/11 12:35:03;;;;;;;51.00;24.52;;;4.50;99.90;;;;;;7268839;32;20126;-58
2021/12/11 12:39:07;;;;;;;51.45;25.20;;;4.50;99.90;;;;;;7269106;32;20123;-59
2021/12/11 12:43:42;;;;;;;54.08;26.95;;;4.60;99.90;;;;;;7260010;32;20119;-59
2021/12/11 12:47:59;;;;;;;52.22;23.33;;;4.50;99.90;;;;;;7256272;32;20116;-59
2021/12/11 12:52:08;;;;;;;51.83;24.25;;;4.70;99.90;;;;;;7267002;32;20135;-60
2021/12/11 12:56:14;;;;;;;52.17;22.48;;;4.70;99.90;;;;;;7260492;32;20127;-60
2021/12/11 13:00:44;;;;;;;48.92;22.50;;;4.70;99.90;;;;;;7269543;32;20586;-59
2021/12/11 13:04:53;;;;;;;45.20;22.65;;;4.80;99.90;;;;;;7266167;32;20100;-59
2021/12/11 13:09:41;;;;;;;57.33;23.10;;;4.80;99.90;;;;;;7265583;32;20119;-59
2021/12/11 13:13:44;;;;;;;51.00;24.85;;;4.80;99.90;;;;;;7275865;32;20112;-59
2021/12/11 13:17:50;;;;;;;45.92;24.65;;;4.70;99.90;;;;;;7267725;32;20312;-59
2021/12/11 13:21:57;;;;;;;48.78;25.52;;;4.80;99.90;;;;;;7255589;32;20132;-61
2021/12/11 13:26:02;;;;;;;55.15;27.23;;;4.80;99.90;;;;;;7268982;32;20230;-59
2021/12/11 13:30:11;;;;;;;47.83;25.60;;;4.80;99.90;;;;;;7252600;32;20584;-59
2021/12/11 13:34:13;;;;;;;54.22;26.48;;;4.80;99.90;;;;;;7272388;32;20100;-59
2021/12/11 13:38:17;;;;;;;48.70;26.58;;;4.80;99.90;;;;;;7272793;32;20123;-60
2021/12/11 13:42:27;;;;;;;49.60;25.33;;;4.80;99.90;;;;;;7273750;32;20104;-61
2021/12/11 13:46:29;;;;;;;45.30;23.25;;;4.90;99.90;;;;;;7254624;32;20113;-60
2021/12/11 13:50:40;;;;;;;43.67;24.85;;;4.90;99.90;;;;;;7265890;32;20116;-61
2021/12/11 13:54:42;;;;;;;40.15;22.70;;;4.90;99.90;;;;;;7270130;32;20677;-59
2021/12/11 13:58:45;;;;;;;42.78;21.08;;;4.80;99.90;;;;;;7265374;32;20183;-59
2021/12/11 14:02:48;;;;;;;39.80;19.85;;;4.80;99.90;;;;;;7288597;32;20195;-60
2021/12/11 14:07:03;;;;;;;38.13;20.37;;;4.90;99.90;;;;;;7260066;32;20123;-60
2021/12/11 14:11:07;;;;;;;37.97;19.73;;;4.90;99.90;;;;;;7269044;32;20136;-58
2021/12/11 14:15:09;;;;;;;33.22;18.12;;;4.90;99.90;;;;;;7269359;32;20105;-59
2021/12/11 14:19:11;;;;;;;34.63;19.62;;;4.80;99.90;;;;;;7275265;32;20124;-58
2021/12/11 14:23:17;;;;;;;35.47;19.77;;;4.80;99.90;;;;;;7267402;32;20117;-59
2021/12/11 14:27:20;;;;;;;33.28;19.65;;;4.80;99.90;;;;;;7263543;32;20108;-59
2021/12/11 14:31:24;;;;;;;33.85;19.23;;;4.90;99.90;;;;;;7275133;32;20142;-60
2021/12/11 14:35:32;;;;;;;35.65;19.02;;;4.80;99.90;;;;;;7268119;32;20245;-58
2021/12/11 14:39:33;;;;;;;28.87;17.73;;;4.80;99.90;;;;;;7272112;32;20107;-58
2021/12/11 14:43:36;;;;;;;35.38;18.48;;;4.80;99.90;;;;;;7264979;32;20820;-59
2021/12/11 14:47:38;;;;;;;29.98;17.62;;;4.70;99.90;;;;;;7268526;32;20127;-59
2021/12/11 14:51:41;;;;;;;35.33;18.85;;;4.70;99.90;;;;;;7273960;32;20128;-59
2021/12/11 14:55:47;;;;;;;37.85;19.80;;;4.60;99.90;;;;;;7254428;32;20112;-59
2021/12/11 14:59:56;;;;;;;34.38;19.70;;;4.50;99.90;;;;;;7249835;32;20456;-59
2021/12/11 15:03:58;;;;;;;34.80;20.30;;;4.30;99.90;;;;;;7246558;32;20211;-58
2021/12/11 15:08:01;;;;;;;36.17;20.42;;;4.20;99.90;;;;;;7277391;32;20108;-61
2021/12/11 15:12:04;;;;;;;44.75;22.98;;;4.10;99.90;;;;;;7269740;32;20154;-60
2021/12/11 15:16:06;;;;;;;35.08;20.50;;;4.00;99.90;;;;;;7274468;32;20125;-60
2021/12/11 15:20:36;;;;;;;41.60;21.25;;;4.00;99.90;;;;;;7255164;32;20496;-60
2021/12/11 15:24:38;;;;;;;38.55;21.00;;;4.00;99.90;;;;;;7256696;32;20110;-60
2021/12/11 15:28:41;;;;;;;39.83;21.25;;;4.00;99.90;;;;;;7259080;32;20204;-60
2021/12/11 15:32:43;;;;;;;37.67;21.73;;;4.00;99.90;;;;;;7255277;32;20108;-58
2021/12/11 15:36:46;;;;;;;38.05;21.77;;;4.00;99.90;;;;;;7245971;32;20220;-60
2021/12/11 15:40:49;;;;;;;39.65;20.73;;;4.00;99.90;;;;;;7255342;32;20202;-57
2021/12/11 15:44:58;;;;;;;37.65;20.75;;;4.00;99.90;;;;;;7268919;32;20138;-59
2021/12/11 15:49:01;;;;;;;39.33;21.73;;;4.00;99.90;;;;;;7276018;32;20122;-60
2021/12/11 15:53:04;;;;;;;37.78;20.20;;;3.90;99.90;;;;;;7246596;32;20294;-60
2021/12/11 15:57:07;;;;;;;36.55;20.80;;;3.90;99.90;;;;;;7248979;32;20116;-59
2021/12/11 16:01:13;;;;;;;37.72;21.02;;;3.90;99.90;;;;;;7248441;32;20131;-59
2021/12/11 16:05:26;;;;;;;41.67;21.60;;;3.90;99.90;;;;;;7259308;32;20134;-61
2021/12/11 16:09:31;;;;;;;40.55;21.33;;;3.90;99.90;;;;;;7272570;32;20285;-60
2021/12/11 16:13:34;;;;;;;40.50;22.33;;;3.90;99.90;;;;;;7259903;32;20126;-60
2021/12/11 16:17:36;;;;;;;46.17;22.87;;;3.90;99.90;;;;;;7254717;32;20100;-61
2021/12/11 16:21:40;;;;;;;55.58;29.52;;;3.90;99.90;;;;;;7258274;32;20194;-61
2021/12/11 16:25:43;;;;;;;48.40;26.58;;;3.90;99.90;;;;;;7267463;32;20266;-59
2021/12/11 16:29:45;;;;;;;54.67;28.42;;;4.00;99.90;;;;;;7256901;32;20100;-61
2021/12/11 16:33:47;;;;;;;53.85;27.80;;;4.00;99.90;;;;;;7260938;32;20199;-59
2021/12/11 16:38:09;;;;;;;53.47;28.05;;;4.00;99.90;;;;;;7258566;32;20106;-60
2021/12/11 16:42:37;;;;;;;56.90;29.33;;;4.00;99.90;;;;;;7260535;32;20241;-62
2021/12/11 16:46:44;;;;;;;51.50;26.87;;;4.00;99.90;;;;;;7248184;32;20601;-60
2021/12/11 16:50:46;;;;;;;56.63;28.63;;;4.00;99.90;;;;;;7270217;32;20108;-61
2021/12/11 16:54:48;;;;;;;48.42;25.02;;;3.90;99.90;;;;;;7271085;32;20374;-61
2021/12/11 16:58:51;;;;;;;53.53;27.55;;;4.00;99.90;;;;;;7263748;32;20130;-62
2021/12/11 17:02:53;;;;;;;56.80;27.40;;;4.00;99.90;;;;;;7260084;32;20166;-62
2021/12/11 17:07:02;;;;;;;55.35;28.12;;;4.00;99.90;;;;;;7247081;32;20871;-61
2021/12/11 17:11:06;;;;;;;68.30;32.17;;;4.10;99.90;;;;;;7263537;32;20123;-60
2021/12/11 17:15:09;;;;;;;65.80;33.40;;;4.10;99.90;;;;;;7258729;32;20207;-61
2021/12/11 17:19:14;;;;;;;62.17;32.22;;;4.10;99.90;;;;;;7243730;32;20215;-61
2021/12/11 17:23:15;;;;;;;56.85;29.80;;;4.00;99.90;;;;;;7261448;32;20219;-61
2021/12/11 17:27:20;;;;;;;57.83;29.15;;;4.00;99.90;;;;;;7250601;32;20223;-59
2021/12/11 17:31:23;;;;;;;52.00;26.42;;;4.10;99.90;;;;;;7250482;32;20191;-62
2021/12/11 17:35:26;;;;;;;49.95;27.58;;;4.10;99.90;;;;;;7257869;32;20131;-61
2021/12/11 17:39:29;;;;;;;46.30;25.85;;;4.00;99.90;;;;;;7247677;32;20184;-61
2021/12/11 17:43:33;;;;;;;45.80;25.50;;;4.10;99.90;;;;;;7260575;32;20124;-64
2021/12/11 17:47:39;;;;;;;45.95;26.33;;;4.00;99.90;;;;;;7255761;32;20104;-62
2021/12/11 17:51:42;;;;;;;48.20;25.65;;;3.90;99.90;;;;;;7250685;32;20183;-62
2021/12/11 17:55:45;;;;;;;47.30;26.25;;;3.80;99.90;;;;;;7246571;32;20239;-61
2021/12/11 17:59:51;;;;;;;46.85;26.55;;;3.80;99.90;;;;;;7256641;32;20100;-62
2021/12/11 18:03:58;;;;;;;47.42;27.73;;;3.80;99.90;;;;;;7269963;32;20472;-62
2021/12/11 18:08:06;;;;;;;47.17;24.52;;;3.80;99.90;;;;;;7263246;32;20207;-62
2021/12/11 18:12:24;;;;;;;42.60;23.27;;;3.80;99.90;;;;;;7262544;32;20101;-62
2021/12/11 18:16:40;;;;;;;45.92;22.70;;;3.70;99.90;;;;;;7276038;32;20199;-61
2021/12/11 18:20:57;;;;;;;45.40;22.83;;;3.70;99.90;;;;;;7260491;32;20517;-61
2021/12/11 18:25:05;;;;;;;44.28;22.73;;;3.70;99.90;;;;;;7268877;32;20191;-60
2021/12/11 18:29:12;;;;;;;42.42;21.95;;;3.70;99.90;;;;;;7279111;32;20126;-61
2021/12/11 18:33:14;;;;;;;48.55;22.40;;;3.80;99.90;;;;;;7268366;32;20139;-61
2021/12/11 18:37:27;;;;;;;42.97;20.83;;;3.80;99.90;;;;;;7257474;32;20108;-61
2021/12/11 18:41:32;;;;;;;42.33;20.48;;;3.90;99.90;;;;;;7270675;32;20904;-60
2021/12/11 18:45:43;;;;;;;38.10;20.10;;;3.90;99.90;;;;;;7271587;32;20515;-61
2021/12/11 18:49:48;;;;;;;40.00;21.45;;;4.00;99.90;;;;;;7286172;32;20158;-61
2021/12/11 18:53:54;;;;;;;37.88;19.20;;;4.00;99.90;;;;;;7247202;32;20219;-61
2021/12/11 18:58:01;;;;;;;39.88;19.23;;;4.10;99.90;;;;;;7261831;32;20105;-62
2021/12/11 19:02:03;;;;;;;35.13;18.27;;;4.10;99.90;;;;;;7261251;32;20488;-62
2021/12/11 19:06:12;;;;;;;37.85;19.60;;;4.10;99.90;;;;;;7264696;32;20574;-61
2021/12/11 19:10:15;;;;;;;32.13;17.55;;;4.20;99.90;;;;;;7258472;32;20104;-61
2021/12/11 19:14:20;;;;;;;36.35;16.80;;;4.20;99.90;;;;;;7266410;32;20163;-61
2021/12/11 19:18:24;;;;;;;32.10;15.95;;;4.10;99.90;;;;;;7259242;32;20476;-60
2021/12/11 19:22:27;;;;;;;34.42;17.35;;;4.20;99.90;;;;;;7274348;32;20563;-60
2021/12/11 19:26:30;;;;;;;31.48;15.18;;;4.20;99.90;;;;;;7246030;32;20225;-62
2021/12/11 19:30:40;;;;;;;24.75;13.75;;;4.20;99.90;;;;;;7261912;32;20315;-61
2021/12/11 19:34:42;;;;;;;29.90;13.20;;;4.30;99.90;;;;;;7259709;32;20175;-62
2021/12/11 19:38:46;;;;;;;24.17;11.32;;;4.30;99.90;;;;;;7270654;32;20113;-61
2021/12/11 19:42:48;;;;;;;28.05;11.93;;;4.50;99.90;;;;;;7259012;32;20123;-61
2021/12/11 19:46:50;;;;;;;19.62;10.38;;;4.40;99.90;;;;;;7263664;32;20122;-62
2021/12/11 19:50:56;;;;;;;22.73;10.07;;;4.30;99.90;;;;;;7261253;32;20128;-61
2021/12/11 19:55:00;;;;;;;23.33;10.40;;;4.30;99.90;;;;;;7284143;32;20179;-62
2021/12/11 19:59:07;;;;;;;26.52;11.48;;;4.00;99.90;;;;;;7259871;32;20128;-62
2021/12/11 20:03:14;;;;;;;21.17;10.57;;;3.90;99.90;;;;;;7240101;32;20213;-61
2021/12/11 20:07:16;;;;;;;22.13;10.40;;;3.70;99.90;;;;;;7245684;32;20353;-62
2021/12/11 20:11:27;;;;;;;24.65;11.32;;;3.60;99.90;;;;;;7266698;32;20157;-61
2021/12/11 20:15:36;;;;;;;25.60;12.68;;;3.40;99.90;;;;;;7244226;32;20653;-62
2021/12/11 20:19:41;;;;;;;22.70;11.27;;;3.20;99.90;;;;;;7244964;32;20154;-63
2021/12/11 20:23:44;;;;;;;24.92;12.18;;;3.10;99.90;;;;;;7266252;32;20619;-62
2021/12/11 20:27:47;;;;;;;23.67;11.38;;;3.00;99.90;;;;;;7270004;32;20495;-61
2021/12/11 20:31:52;;;;;;;22.40;11.52;;;2.90;99.90;;;;;;7253603;32;20262;-61
2021/12/11 20:35:54;;;;;;;21.00;11.15;;;2.80;99.90;;;;;;7247063;32;20403;-61
2021/12/11 20:40:03;;;;;;;27.87;10.82;;;2.90;99.90;;;;;;7251828;32;20582;-62
2021/12/11 20:44:07;;;;;;;21.05;10.35;;;3.00;99.90;;;;;;7247127;32;20479;-61
2021/12/11 20:48:10;;;;;;;22.58;10.85;;;3.00;99.90;;;;;;7278004;32;20178;-62
2021/12/11 20:52:14;;;;;;;24.40;10.35;;;2.80;99.90;;;;;;7263098;32;20108;-64
2021/12/11 20:56:19;;;;;;;20.55;10.13;;;2.80;99.90;;;;;;7247362;32;20122;-63
2021/12/11 21:00:26;;;;;;;24.25;10.38;;;2.80;99.90;;;;;;7257254;32;20135;-61
2021/12/11 21:04:46;;;;;;;29.83;11.15;;;2.60;99.90;;;;;;7272888;32;20108;-62
2021/12/11 21:08:53;;;;;;;17.42;9.80;;;2.50;99.90;;;;;;7275379;32;20108;-61
2021/12/11 21:13:00;;;;;;;22.77;11.07;;;2.40;99.90;;;;;;7256817;32;20125;-61